Time;durP1;ratioP1;P1;durP2;ratioP2;P2;SDS_P1;SDS_P2;PMS_P1;PMS_P2;Temp;Humidity;BMP_temperature;BMP_pressure;BME280_temperature;BME280_humidity;BME280_pressure;Samples;Min_cycle;Max_cycle;Signal;HPM_P1;HPM_P2
2023/08/12 00:01:47;;;;;;;;;;;20.80;73.40;;;;;;5099591;28;19920;-65
2023/08/12 00:04:14;;;;;;;;;;;20.80;73.40;;;;;;5115922;27;20393;-71
2023/08/12 00:06:40;;;;;;;;;;;20.80;73.40;;;;;;5115771;28;20290;-71
2023/08/12 00:09:07;;;;;;;;;;;20.80;73.40;;;;;;5114819;28;20383;-66
2023/08/12 00:11:32;;;;;;;;;;;20.80;73.40;;;;;;5114282;28;20441;-66
2023/08/12 00:13:58;;;;;;;;;;;20.80;73.40;;;;;;5114744;28;19998;-71
2023/08/12 00:16:23;;;;;;;;;;;20.80;73.40;;;;;;5114277;28;19970;-65
2023/08/12 00:18:49;;;;;;;;;;;20.80;73.50;;;;;;5114579;28;19981;-66
2023/08/12 00:21:14;;;;;;;;;;;20.80;73.40;;;;;;5114109;28;19919;-65
2023/08/12 00:23:40;;;;;;;;;;;20.80;73.40;;;;;;5114537;28;19920;-65
2023/08/12 00:26:06;;;;;;;;;;;20.80;73.40;;;;;;5114180;28;19926;-66
2023/08/12 00:28:32;;;;;;;;;;;20.80;73.40;;;;;;5114560;28;20391;-66
2023/08/12 00:30:57;;;;;;;;;;;20.80;73.50;;;;;;5097142;28;19924;-65
2023/08/12 00:33:23;;;;;;;;;;;20.80;73.50;;;;;;5114129;28;19920;-66
2023/08/12 00:35:48;;;;;;;;;;;20.80;73.50;;;;;;5115295;28;20293;-66
2023/08/12 00:38:14;;;;;;;;;;;20.80;73.50;;;;;;5115112;28;19923;-66
2023/08/12 00:40:39;;;;;;;;;;;20.80;73.50;;;;;;5096988;28;19927;-71
2023/08/12 00:43:05;;;;;;;;;;;20.80;73.50;;;;;;5114121;28;20006;-66
2023/08/12 00:45:30;;;;;;;;;;;20.80;73.50;;;;;;5113890;28;20013;-65
2023/08/12 00:47:56;;;;;;;;;;;20.80;73.50;;;;;;5114049;28;19927;-65
2023/08/12 00:50:22;;;;;;;;;;;20.80;73.50;;;;;;5113640;28;20409;-66
2023/08/12 00:52:48;;;;;;;;;;;20.80;73.50;;;;;;5113806;28;19919;-66
2023/08/12 00:55:13;;;;;;;;;;;20.80;73.60;;;;;;5113553;28;20267;-71
2023/08/12 00:57:39;;;;;;;;;;;20.80;73.60;;;;;;5114764;28;19924;-66
2023/08/12 01:00:05;;;;;;;;;;;20.80;73.60;;;;;;5113836;28;19928;-65
2023/08/12 01:02:30;;;;;;;;;;;20.80;73.60;;;;;;5102220;28;19962;-66
2023/08/12 01:04:55;;;;;;;;;;;20.80;73.60;;;;;;5093363;28;19927;-66
2023/08/12 01:07:21;;;;;;;;;;;20.80;73.60;;;;;;5093258;28;19946;-66
2023/08/12 01:09:47;;;;;;;;;;;20.80;73.60;;;;;;5094058;28;20022;-71
2023/08/12 01:12:13;;;;;;;;;;;20.80;73.60;;;;;;5093384;28;19927;-65
2023/08/12 01:17:23;;;;;;;;;;;20.80;73.70;;;;;;5110250;27;19913;-66
2023/08/12 01:19:50;;;;;;;;;;;20.80;73.70;;;;;;5110188;28;20389;-66
2023/08/12 01:22:16;;;;;;;;;;;20.80;73.70;;;;;;5109163;28;19931;-65
2023/08/12 01:24:42;;;;;;;;;;;20.80;73.70;;;;;;5109181;28;20264;-66
2023/08/12 01:27:09;;;;;;;;;;;20.80;73.70;;;;;;5109077;28;19927;-72
2023/08/12 01:29:38;;;;;;;;;;;20.80;73.70;;;;;;5108713;28;20439;-66
2023/08/12 01:32:09;;;;;;;;;;;20.80;73.70;;;;;;5108685;28;19932;-65
2023/08/12 01:34:54;;;;;;;;;;;20.80;73.70;;;;;;5108919;28;20007;-66
2023/08/12 01:37:24;;;;;;;;;;;20.80;73.70;;;;;;5108762;28;19955;-66
2023/08/12 01:39:52;;;;;;;;;;;20.80;73.70;;;;;;5108864;28;19920;-65
2023/08/12 01:42:18;;;;;;;;;;;20.80;73.80;;;;;;5109891;28;19920;-66
2023/08/12 01:44:43;;;;;;;;;;;20.80;73.80;;;;;;5108379;28;19920;-65
2023/08/12 01:47:09;;;;;;;;;;;20.80;73.80;;;;;;5108765;28;19927;-65
2023/08/12 01:49:34;;;;;;;;;;;20.80;73.80;;;;;;5108317;28;19924;-66
2023/08/12 01:52:00;;;;;;;;;;;20.80;74.60;;;;;;5109665;28;19924;-66
2023/08/12 01:54:25;;;;;;;;;;;20.80;73.80;;;;;;5109530;28;19920;-65
2023/08/12 01:56:51;;;;;;;;;;;20.80;73.80;;;;;;5109472;28;19924;-65
2023/08/12 01:59:16;;;;;;;;;;;20.80;73.80;;;;;;5109895;28;19920;-66
2023/08/12 02:01:42;;;;;;;;;;;20.80;73.90;;;;;;5109809;28;20378;-66
2023/08/12 02:04:07;;;;;;;;;;;20.80;73.90;;;;;;5108401;28;19920;-71
2023/08/12 02:06:33;;;;;;;;;;;20.80;74.50;;;;;;5109663;28;20448;-65
2023/08/12 02:08:58;;;;;;;;;;;20.80;73.90;;;;;;5108393;28;19927;-65
2023/08/12 02:11:24;;;;;;;;;;;20.80;73.90;;;;;;5108270;28;19920;-66
2023/08/12 02:13:49;;;;;;;;;;;20.80;73.90;;;;;;5107996;28;19920;-66
2023/08/12 02:16:15;;;;;;;;;;;20.80;73.90;;;;;;5107648;28;19927;-66
2023/08/12 02:18:40;;;;;;;;;;;20.70;73.90;;;;;;5107868;28;20031;-65
2023/08/12 02:21:06;;;;;;;;;;;20.80;74.00;;;;;;5107690;28;19927;-65
2023/08/12 02:23:31;;;;;;;;;;;20.80;74.00;;;;;;5108344;28;19927;-66
2023/08/12 02:25:57;;;;;;;;;;;20.80;74.00;;;;;;5107974;28;20014;-65
2023/08/12 02:28:22;;;;;;;;;;;20.80;74.00;;;;;;5096025;28;19927;-66
2023/08/12 02:30:47;;;;;;;;;;;20.80;74.00;;;;;;5094304;28;19931;-65
2023/08/12 02:33:13;;;;;;;;;;;20.80;74.00;;;;;;5094060;28;19921;-66
2023/08/12 02:35:38;;;;;;;;;;;20.80;74.00;;;;;;5094055;28;19924;-65
2023/08/12 02:38:04;;;;;;;;;;;20.80;74.00;;;;;;5093980;28;19970;-65
2023/08/12 02:40:30;;;;;;;;;;;20.80;74.10;;;;;;5094190;28;20264;-65
2023/08/12 02:42:55;;;;;;;;;;;20.80;74.10;;;;;;5095282;28;19920;-66
2023/08/12 02:45:21;;;;;;;;;;;20.80;74.10;;;;;;5093766;28;19920;-66
2023/08/12 02:47:46;;;;;;;;;;;20.80;74.10;;;;;;5093829;28;19973;-65
2023/08/12 02:50:11;;;;;;;;;;;20.70;74.10;;;;;;5094055;28;19977;-71
2023/08/12 02:52:37;;;;;;;;;;;20.80;74.10;;;;;;5093819;28;19920;-65
2023/08/12 02:55:03;;;;;;;;;;;20.80;74.20;;;;;;5093480;28;20379;-66
2023/08/12 02:57:28;;;;;;;;;;;20.80;74.10;;;;;;5093842;28;19927;-66
2023/08/12 02:59:54;;;;;;;;;;;20.80;74.20;;;;;;5094794;28;20330;-65
2023/08/12 03:02:19;;;;;;;;;;;20.80;74.20;;;;;;5093691;28;19920;-65
2023/08/12 03:04:45;;;;;;;;;;;20.80;74.20;;;;;;5093699;28;20390;-65
2023/08/12 03:07:10;;;;;;;;;;;20.80;74.20;;;;;;5094527;28;19927;-66
2023/08/12 03:09:36;;;;;;;;;;;20.70;74.20;;;;;;5093306;28;19941;-65
2023/08/12 03:12:02;;;;;;;;;;;20.80;74.20;;;;;;5094664;28;19920;-65
2023/08/12 03:14:28;;;;;;;;;;;20.70;74.20;;;;;;5093298;28;19927;-65
2023/08/12 03:16:54;;;;;;;;;;;20.70;74.20;;;;;;5092851;28;19924;-65
2023/08/12 03:19:19;;;;;;;;;;;20.80;74.30;;;;;;5093399;28;19927;-65
2023/08/12 03:21:45;;;;;;;;;;;20.70;74.30;;;;;;5092974;28;20379;-65
2023/08/12 03:24:10;;;;;;;;;;;20.70;74.20;;;;;;5093262;28;20014;-66
2023/08/12 03:26:36;;;;;;;;;;;20.80;74.30;;;;;;5092937;28;20391;-65
2023/08/12 03:29:01;;;;;;;;;;;20.70;74.30;;;;;;5093278;28;19920;-66
2023/08/12 03:31:27;;;;;;;;;;;20.70;74.30;;;;;;5094274;28;20013;-66
2023/08/12 03:33:52;;;;;;;;;;;20.80;74.30;;;;;;5092779;28;19963;-65
2023/08/12 03:36:18;;;;;;;;;;;20.70;74.30;;;;;;5092756;28;19924;-71
2023/08/12 03:38:43;;;;;;;;;;;20.70;74.30;;;;;;5091727;28;19920;-66
2023/08/12 03:41:09;;;;;;;;;;;20.70;74.30;;;;;;5094090;28;20305;-65
2023/08/12 03:43:34;;;;;;;;;;;20.70;74.30;;;;;;5093999;28;20360;-65
2023/08/12 03:46:00;;;;;;;;;;;20.70;74.30;;;;;;5093010;28;19920;-66
2023/08/12 03:48:25;;;;;;;;;;;20.70;74.40;;;;;;5092610;28;20383;-66
2023/08/12 03:50:51;;;;;;;;;;;20.70;74.30;;;;;;5092865;28;19920;-71
2023/08/12 03:53:17;;;;;;;;;;;20.70;74.40;;;;;;5092348;28;19971;-66
2023/08/12 03:55:42;;;;;;;;;;;20.70;74.40;;;;;;5092246;28;20247;-65
2023/08/12 03:58:08;;;;;;;;;;;20.70;74.40;;;;;;5092635;28;19977;-66
2023/08/12 04:00:34;;;;;;;;;;;20.70;74.40;;;;;;5092315;28;19920;-66
2023/08/12 04:02:59;;;;;;;;;;;20.70;74.40;;;;;;5092440;28;19969;-66
2023/08/12 04:05:24;;;;;;;;;;;20.70;74.40;;;;;;5092496;28;19924;-66
2023/08/12 04:07:50;;;;;;;;;;;20.70;74.40;;;;;;5092422;28;19920;-65
2023/08/12 04:10:15;;;;;;;;;;;20.70;74.40;;;;;;5092576;28;19927;-65
2023/08/12 04:12:41;;;;;;;;;;;20.70;74.40;;;;;;5092019;28;19920;-65
2023/08/12 04:15:07;;;;;;;;;;;20.70;74.50;;;;;;5093420;28;20329;-65
2023/08/12 04:17:33;;;;;;;;;;;20.70;74.50;;;;;;5095814;28;19924;-66
2023/08/12 04:19:58;;;;;;;;;;;20.70;74.50;;;;;;5095177;28;19926;-65
2023/08/12 04:22:24;;;;;;;;;;;20.70;74.50;;;;;;5095349;28;19926;-71
2023/08/12 04:24:49;;;;;;;;;;;20.70;74.60;;;;;;5095418;28;20259;-65
2023/08/12 04:27:16;;;;;;;;;;;20.70;74.50;;;;;;5095195;28;19931;-66
2023/08/12 04:29:42;;;;;;;;;;;20.70;74.60;;;;;;5095343;28;19954;-65
2023/08/12 04:32:07;;;;;;;;;;;20.70;74.60;;;;;;5095425;28;20320;-65
2023/08/12 04:34:33;;;;;;;;;;;20.70;74.60;;;;;;5095039;28;19924;-66
2023/08/12 04:36:58;;;;;;;;;;;20.70;74.60;;;;;;5095047;28;19988;-65
2023/08/12 04:39:24;;;;;;;;;;;20.70;74.60;;;;;;5113221;28;20403;-65
2023/08/12 04:41:49;;;;;;;;;;;20.70;74.60;;;;;;5095199;28;20444;-65
2023/08/12 04:44:15;;;;;;;;;;;20.70;74.60;;;;;;5113294;28;19920;-65
2023/08/12 04:46:40;;;;;;;;;;;20.70;74.60;;;;;;5095292;28;19919;-65
2023/08/12 04:49:05;;;;;;;;;;;20.70;74.60;;;;;;5094901;28;20283;-66
2023/08/12 04:51:31;;;;;;;;;;;20.70;74.60;;;;;;5094840;28;19924;-65
2023/08/12 04:53:57;;;;;;;;;;;20.70;74.60;;;;;;5095076;28;20445;-65
2023/08/12 04:56:24;;;;;;;;;;;20.70;74.70;;;;;;5094616;28;19955;-66
2023/08/12 04:58:49;;;;;;;;;;;20.70;74.70;;;;;;5095027;28;19935;-65
2023/08/12 05:01:15;;;;;;;;;;;20.70;74.70;;;;;;5094563;28;20433;-65
2023/08/12 05:03:40;;;;;;;;;;;20.70;74.70;;;;;;5113354;28;19965;-65
2023/08/12 05:06:06;;;;;;;;;;;20.70;74.70;;;;;;5094581;28;20394;-65
2023/08/12 05:08:32;;;;;;;;;;;20.70;74.70;;;;;;5129201;27;19919;-66
2023/08/12 05:10:57;;;;;;;;;;;20.70;74.70;;;;;;5094512;28;19920;-66
2023/08/12 05:13:23;;;;;;;;;;;20.70;74.80;;;;;;5128893;27;19920;-66
2023/08/12 05:15:49;;;;;;;;;;;20.70;74.80;;;;;;5094126;28;19930;-65
2023/08/12 05:18:14;;;;;;;;;;;20.70;74.80;;;;;;5112880;28;20309;-66
2023/08/12 05:20:41;;;;;;;;;;;20.70;74.80;;;;;;5128552;28;20340;-65
2023/08/12 05:23:07;;;;;;;;;;;20.70;74.80;;;;;;5094802;28;20057;-65
2023/08/12 05:25:32;;;;;;;;;;;20.70;74.80;;;;;;5128509;28;20015;-65
2023/08/12 05:27:58;;;;;;;;;;;20.70;74.80;;;;;;5128797;28;19926;-65
2023/08/12 05:30:23;;;;;;;;;;;20.70;74.80;;;;;;5094435;28;19927;-66
2023/08/12 05:32:49;;;;;;;;;;;20.70;74.80;;;;;;5128744;28;19973;-65
2023/08/12 05:35:14;;;;;;;;;;;20.70;74.80;;;;;;5094367;28;20105;-65
2023/08/12 05:37:40;;;;;;;;;;;20.70;74.80;;;;;;5112680;28;19919;-65
2023/08/12 05:40:08;;;;;;;;;;;20.70;74.80;;;;;;5112993;28;19978;-65
2023/08/12 05:42:34;;;;;;;;;;;20.70;74.90;;;;;;5094610;28;19919;-67
2023/08/12 05:44:59;;;;;;;;;;;20.70;74.80;;;;;;5112519;28;19920;-65
2023/08/12 05:47:25;;;;;;;;;;;20.70;74.80;;;;;;5094443;28;20011;-66
2023/08/12 05:49:50;;;;;;;;;;;20.70;74.80;;;;;;5112665;28;19945;-66
2023/08/12 05:52:16;;;;;;;;;;;20.70;74.80;;;;;;5094243;28;20418;-66
2023/08/12 05:54:41;;;;;;;;;;;20.70;74.80;;;;;;5094650;28;19973;-66
2023/08/12 05:57:07;;;;;;;;;;;20.70;74.80;;;;;;5128217;28;19931;-66
2023/08/12 05:59:32;;;;;;;;;;;20.70;74.80;;;;;;5112357;28;19926;-65
2023/08/12 06:01:57;;;;;;;;;;;20.70;74.80;;;;;;5094603;28;20010;-65
2023/08/12 06:04:23;;;;;;;;;;;20.70;74.80;;;;;;5097976;28;19943;-66
2023/08/12 06:06:48;;;;;;;;;;;20.70;74.80;;;;;;5097838;28;20058;-65
2023/08/12 06:09:14;;;;;;;;;;;20.70;74.80;;;;;;5116290;28;19973;-66
2023/08/12 06:11:39;;;;;;;;;;;20.70;74.80;;;;;;5097909;28;20413;-71
2023/08/12 06:14:06;;;;;;;;;;;20.70;74.80;;;;;;5097713;28;19924;-65
2023/08/12 06:16:31;;;;;;;;;;;20.70;74.80;;;;;;5097593;28;19931;-66
2023/08/12 06:18:56;;;;;;;;;;;20.70;74.80;;;;;;5097798;28;19919;-65
2023/08/12 06:21:22;;;;;;;;;;;20.70;74.80;;;;;;5097713;28;19934;-65
2023/08/12 06:23:47;;;;;;;;;;;20.70;74.80;;;;;;5097555;28;19966;-65
2023/08/12 06:26:13;;;;;;;;;;;20.70;74.80;;;;;;5097955;28;19919;-65
2023/08/12 06:28:38;;;;;;;;;;;20.70;74.80;;;;;;5097750;28;19919;-66
2023/08/12 06:31:04;;;;;;;;;;;20.70;74.80;;;;;;5097434;28;19924;-65
2023/08/12 06:33:29;;;;;;;;;;;20.70;74.80;;;;;;5115938;28;19920;-65
2023/08/12 06:35:55;;;;;;;;;;;20.70;74.80;;;;;;5097614;28;19928;-66
2023/08/12 06:38:20;;;;;;;;;;;20.70;74.80;;;;;;5097629;28;20006;-66
2023/08/12 06:40:46;;;;;;;;;;;20.70;74.90;;;;;;5097272;28;20393;-66
2023/08/12 06:43:12;;;;;;;;;;;20.70;74.80;;;;;;5115466;28;19965;-65
2023/08/12 06:45:37;;;;;;;;;;;20.70;74.80;;;;;;5097451;28;19920;-66
2023/08/12 06:48:03;;;;;;;;;;;20.70;74.80;;;;;;5097494;28;19919;-65
2023/08/12 06:50:30;;;;;;;;;;;20.70;74.80;;;;;;5097133;28;20279;-65
2023/08/12 06:52:55;;;;;;;;;;;20.70;74.80;;;;;;5097491;28;19920;-65
2023/08/12 06:55:21;;;;;;;;;;;20.70;74.80;;;;;;5096854;28;19969;-66
2023/08/12 06:57:46;;;;;;;;;;;20.70;74.80;;;;;;5115335;28;20283;-70
2023/08/12 07:00:12;;;;;;;;;;;20.70;74.90;;;;;;5097145;28;20363;-66
2023/08/12 07:02:40;;;;;;;;;;;20.70;74.80;;;;;;5115343;28;19920;-66
2023/08/12 07:05:05;;;;;;;;;;;20.70;74.80;;;;;;5097279;28;19949;-65
2023/08/12 07:07:31;;;;;;;;;;;20.70;74.90;;;;;;5096897;28;19923;-66
2023/08/12 07:09:56;;;;;;;;;;;20.70;74.90;;;;;;5115083;28;19920;-65
2023/08/12 07:12:22;;;;;;;;;;;20.70;74.90;;;;;;5097127;28;20480;-66
2023/08/12 07:14:47;;;;;;;;;;;20.70;74.80;;;;;;5096992;28;19920;-65
2023/08/12 07:17:13;;;;;;;;;;;20.70;74.80;;;;;;5130466;27;20367;-65
2023/08/12 07:19:38;;;;;;;;;;;20.70;74.80;;;;;;5096415;28;19920;-65
2023/08/12 07:22:04;;;;;;;;;;;20.70;74.80;;;;;;5114772;28;19989;-65
2023/08/12 07:24:29;;;;;;;;;;;20.70;74.80;;;;;;5130518;27;19934;-66
2023/08/12 07:26:55;;;;;;;;;;;20.70;74.90;;;;;;5130553;27;19924;-65
2023/08/12 07:29:21;;;;;;;;;;;20.70;74.90;;;;;;5114650;28;20018;-65
2023/08/12 07:31:46;;;;;;;;;;;20.70;74.90;;;;;;5114437;28;19920;-65
2023/08/12 07:34:13;;;;;;;;;;;20.70;74.90;;;;;;5096546;28;19927;-66
2023/08/12 07:36:40;;;;;;;;;;;20.70;74.90;;;;;;5096113;28;19923;-66
2023/08/12 07:39:06;;;;;;;;;;;20.70;74.90;;;;;;5096461;28;19976;-66
2023/08/12 07:41:31;;;;;;;;;;;20.70;74.90;;;;;;5114339;28;19920;-66
2023/08/12 07:43:57;;;;;;;;;;;20.70;74.90;;;;;;5096254;28;19942;-66
2023/08/12 07:46:23;;;;;;;;;;;20.70;74.90;;;;;;5130434;27;19985;-66
2023/08/12 07:48:48;;;;;;;;;;;20.70;74.90;;;;;;5130138;27;19924;-66
2023/08/12 07:51:14;;;;;;;;;;;20.70;74.90;;;;;;5096225;28;19920;-66
2023/08/12 07:53:40;;;;;;;;;;;20.70;74.90;;;;;;5095930;28;19924;-66
2023/08/12 07:56:05;;;;;;;;;;;20.70;74.90;;;;;;5095880;28;19976;-66
2023/08/12 07:58:31;;;;;;;;;;;20.70;74.90;;;;;;5114106;28;19969;-66
2023/08/12 08:00:56;;;;;;;;;;;20.70;74.90;;;;;;5130125;27;19988;-66
2023/08/12 08:03:22;;;;;;;;;;;20.70;74.90;;;;;;5095649;28;19920;-66
2023/08/12 08:05:48;;;;;;;;;;;20.70;74.90;;;;;;5095559;28;19927;-66
2023/08/12 08:08:13;;;;;;;;;;;20.70;74.90;;;;;;5095982;28;20262;-65
2023/08/12 08:10:39;;;;;;;;;;;20.70;74.90;;;;;;5113216;28;20018;-65
2023/08/12 08:13:04;;;;;;;;;;;20.70;75.00;;;;;;5113849;28;20378;-65
2023/08/12 08:15:30;;;;;;;;;;;20.70;74.90;;;;;;5095325;28;19931;-65
2023/08/12 08:17:55;;;;;;;;;;;20.70;75.00;;;;;;5095242;28;19924;-65
2023/08/12 08:20:21;;;;;;;;;;;20.70;74.90;;;;;;5095756;28;19920;-64
2023/08/12 08:22:47;;;;;;;;;;;20.70;74.90;;;;;;5113708;28;20400;-65
2023/08/12 08:25:12;;;;;;;;;;;20.70;75.00;;;;;;5094942;28;19931;-64
2023/08/12 08:27:38;;;;;;;;;;;20.70;74.90;;;;;;5095234;28;19920;-65
2023/08/12 08:30:04;;;;;;;;;;;20.70;75.00;;;;;;5113433;28;19919;-64
2023/08/12 08:32:30;;;;;;;;;;;20.70;75.00;;;;;;5095113;28;20011;-65
2023/08/12 08:34:55;;;;;;;;;;;20.70;75.00;;;;;;5095577;28;20006;-65
2023/08/12 08:37:21;;;;;;;;;;;20.70;75.00;;;;;;5113223;28;19924;-64
2023/08/12 08:39:46;;;;;;;;;;;20.70;75.00;;;;;;5095342;28;20367;-64
2023/08/12 08:42:12;;;;;;;;;;;20.70;75.00;;;;;;5095084;28;19927;-65
2023/08/12 08:44:40;;;;;;;;;;;20.70;74.90;;;;;;5094922;28;19919;-65
2023/08/12 08:47:06;;;;;;;;;;;20.70;74.90;;;;;;5113100;28;19923;-65
2023/08/12 08:49:32;;;;;;;;;;;20.70;74.90;;;;;;5113051;28;19919;-69
2023/08/12 08:51:58;;;;;;;;;;;20.70;74.90;;;;;;5095168;28;19920;-64
2023/08/12 08:54:24;;;;;;;;;;;20.70;74.90;;;;;;5094776;28;19919;-65
2023/08/12 08:56:49;;;;;;;;;;;20.70;74.90;;;;;;5113045;28;19924;-64
2023/08/12 08:59:15;;;;;;;;;;;20.70;75.00;;;;;;5112864;28;19923;-65
2023/08/12 09:01:41;;;;;;;;;;;20.70;74.90;;;;;;5094950;28;19943;-65
2023/08/12 09:04:07;;;;;;;;;;;20.70;75.00;;;;;;5112793;28;20386;-65
2023/08/12 09:06:33;;;;;;;;;;;20.70;75.00;;;;;;5094942;28;19980;-65
2023/08/12 09:09:00;;;;;;;;;;;20.70;75.00;;;;;;5112938;28;20348;-70
2023/08/12 09:11:25;;;;;;;;;;;20.60;74.90;;;;;;5094911;28;20267;-64
2023/08/12 09:13:52;;;;;;;;;;;20.70;75.00;;;;;;5094800;28;19942;-65
2023/08/12 09:16:17;;;;;;;;;;;20.70;75.00;;;;;;5112509;28;19924;-65
2023/08/12 09:18:44;;;;;;;;;;;20.70;75.00;;;;;;5094446;28;20019;-65
2023/08/12 09:21:10;;;;;;;;;;;20.70;75.00;;;;;;5112711;28;19920;-65
2023/08/12 09:23:39;;;;;;;;;;;20.70;75.00;;;;;;5094793;28;20455;-64
2023/08/12 09:26:12;;;;;;;;;;;20.70;75.80;;;;;;5094427;28;19968;-65
2023/08/12 09:28:38;;;;;;;;;;;20.70;75.00;;;;;;5128768;28;19920;-65
2023/08/12 09:31:07;;;;;;;;;;;20.70;75.10;;;;;;5128837;28;19920;-64
2023/08/12 09:33:32;;;;;;;;;;;20.70;75.10;;;;;;5112628;28;19930;-64
2023/08/12 09:35:57;;;;;;;;;;;20.70;75.10;;;;;;5128496;28;19924;-69
2023/08/12 09:38:23;;;;;;;;;;;20.70;75.10;;;;;;5115550;28;19989;-65
2023/08/12 09:40:51;;;;;;;;;;;20.70;75.10;;;;;;5132982;27;20371;-64
2023/08/12 09:43:17;;;;;;;;;;;20.70;75.10;;;;;;5132837;27;20383;-64
2023/08/12 09:45:44;;;;;;;;;;;20.70;75.20;;;;;;5132438;27;19927;-64
2023/08/12 09:48:09;;;;;;;;;;;20.70;75.10;;;;;;5117130;28;20006;-64
2023/08/12 09:50:36;;;;;;;;;;;20.70;75.20;;;;;;5098452;28;19963;-64
2023/08/12 09:53:03;;;;;;;;;;;20.70;75.20;;;;;;5098596;28;20003;-64
2023/08/12 09:55:29;;;;;;;;;;;20.70;75.20;;;;;;5097998;28;19919;-65
2023/08/12 09:57:56;;;;;;;;;;;20.70;75.20;;;;;;5116704;28;20119;-65
2023/08/12 10:00:23;;;;;;;;;;;20.70;75.20;;;;;;5116342;28;20309;-64
2023/08/12 10:02:51;;;;;;;;;;;20.70;75.20;;;;;;5098505;28;19920;-65
2023/08/12 10:05:19;;;;;;;;;;;20.70;75.20;;;;;;5097972;28;19959;-64
2023/08/12 10:07:45;;;;;;;;;;;20.70;75.20;;;;;;5116420;28;19924;-64
2023/08/12 10:10:12;;;;;;;;;;;20.70;75.20;;;;;;5098497;28;20316;-65
2023/08/12 10:12:38;;;;;;;;;;;20.70;75.30;;;;;;5098039;28;19920;-64
2023/08/12 10:15:05;;;;;;;;;;;20.70;75.20;;;;;;5098050;28;19943;-65
2023/08/12 10:17:31;;;;;;;;;;;20.70;75.30;;;;;;5097631;28;19930;-65
2023/08/12 10:19:57;;;;;;;;;;;20.70;75.30;;;;;;5116365;28;20425;-65
2023/08/12 10:22:24;;;;;;;;;;;20.70;75.30;;;;;;5115958;28;19951;-65
2023/08/12 10:24:50;;;;;;;;;;;20.70;75.30;;;;;;5097853;28;19927;-64
2023/08/12 10:27:16;;;;;;;;;;;20.70;75.30;;;;;;5097695;28;20278;-65
2023/08/12 10:29:43;;;;;;;;;;;20.70;75.30;;;;;;5097836;28;19927;-64
2023/08/12 10:32:08;;;;;;;;;;;20.70;75.30;;;;;;5097430;28;19924;-64
2023/08/12 10:34:34;;;;;;;;;;;20.70;75.30;;;;;;5115661;28;19924;-68
2023/08/12 10:37:01;;;;;;;;;;;20.70;75.30;;;;;;5097233;28;19931;-64
2023/08/12 10:39:28;;;;;;;;;;;20.70;75.30;;;;;;5097471;28;20301;-65
2023/08/12 10:41:54;;;;;;;;;;;20.70;75.40;;;;;;5115628;28;20290;-64
2023/08/12 10:44:21;;;;;;;;;;;20.70;75.40;;;;;;5115662;28;19965;-64
2023/08/12 10:46:51;;;;;;;;;;;20.70;75.40;;;;;;5115410;28;19926;-65
2023/08/12 10:49:18;;;;;;;;;;;20.70;75.40;;;;;;5114949;28;19942;-65
2023/08/12 10:51:46;;;;;;;;;;;20.70;75.40;;;;;;5097064;28;19973;-65
2023/08/12 10:54:29;;;;;;;;;;;20.70;75.40;;;;;;5097317;28;19927;-65
2023/08/12 11:02:30;;;;;;;;;;;20.70;75.40;;;;;;5089877;28;19912;-65
2023/08/12 11:04:58;;;;;;;;;;;20.70;75.50;;;;;;5088660;28;19920;-65
2023/08/12 11:07:28;;;;;;;;;;;20.70;75.50;;;;;;5088780;28;19920;-65
2023/08/12 11:09:58;;;;;;;;;;;20.70;75.50;;;;;;5089937;28;19974;-65
2023/08/12 11:12:32;;;;;;;;;;;20.70;76.30;;;;;;5088354;28;19920;-65
2023/08/12 11:14:59;;;;;;;;;;;20.70;75.60;;;;;;5088711;28;19931;-65
2023/08/12 11:17:33;;;;;;;;;;;20.70;75.60;;;;;;5088699;28;20350;-65
2023/08/12 11:20:00;;;;;;;;;;;20.70;75.60;;;;;;5088518;28;19920;-66
2023/08/12 11:22:25;;;;;;;;;;;20.70;75.70;;;;;;5088770;28;19927;-65
2023/08/12 11:24:51;;;;;;;;;;;20.70;75.80;;;;;;5088239;28;19921;-66
2023/08/12 11:27:17;;;;;;;;;;;20.70;75.90;;;;;;5088230;28;19928;-66
2023/08/12 11:29:43;;;;;;;;;;;20.70;76.00;;;;;;5088445;28;19924;-65
2023/08/12 11:32:09;;;;;;;;;;;20.70;76.90;;;;;;5088122;28;19990;-66
2023/08/12 11:34:34;;;;;;;;;;;20.70;76.20;;;;;;5088346;28;19948;-66
2023/08/12 11:37:00;;;;;;;;;;;20.70;76.20;;;;;;5088442;28;19921;-65
2023/08/12 11:39:26;;;;;;;;;;;20.70;76.40;;;;;;5088246;28;20295;-66
2023/08/12 11:41:52;;;;;;;;;;;20.70;76.40;;;;;;5087780;28;20054;-65
2023/08/12 11:44:21;;;;;;;;;;;20.70;76.50;;;;;;5088147;28;20017;-66
2023/08/12 11:46:46;;;;;;;;;;;20.70;76.50;;;;;;5087898;28;19928;-66
2023/08/12 11:49:11;;;;;;;;;;;20.70;76.50;;;;;;5088041;28;19920;-66
2023/08/12 11:51:37;;;;;;;;;;;20.70;76.50;;;;;;5089110;28;19924;-66
2023/08/12 11:54:03;;;;;;;;;;;20.70;76.50;;;;;;5087693;28;19921;-66
2023/08/12 11:56:29;;;;;;;;;;;20.70;76.50;;;;;;5087620;28;19920;-66
2023/08/12 11:58:54;;;;;;;;;;;20.70;76.60;;;;;;5087926;28;20275;-66
2023/08/12 12:01:22;;;;;;;;;;;20.70;76.60;;;;;;5088504;28;19978;-66
2023/08/12 12:03:54;;;;;;;;;;;20.70;76.60;;;;;;5087442;28;20398;-66
2023/08/12 12:06:40;;;;;;;;;;;20.70;76.60;;;;;;5088879;28;19967;-66
2023/08/12 12:09:09;;;;;;;;;;;20.70;76.60;;;;;;5087410;28;19921;-65
2023/08/12 12:11:36;;;;;;;;;;;20.70;76.60;;;;;;5087803;28;19974;-65
2023/08/12 12:14:02;;;;;;;;;;;20.70;76.50;;;;;;5073786;28;19970;-65
2023/08/12 12:16:44;;;;;;;;;;;20.70;76.70;;;;;;5075273;28;19920;-65
2023/08/12 12:19:12;;;;;;;;;;;20.70;76.70;;;;;;5073989;28;19940;-66
2023/08/12 12:21:39;;;;;;;;;;;20.70;76.60;;;;;;5072925;28;19964;-65
2023/08/12 12:24:05;;;;;;;;;;;20.70;76.70;;;;;;5074059;28;19935;-70
2023/08/12 12:26:31;;;;;;;;;;;20.70;76.70;;;;;;5075039;28;19920;-66
2023/08/12 12:28:57;;;;;;;;;;;20.70;76.60;;;;;;5074924;28;19924;-70
2023/08/12 12:31:23;;;;;;;;;;;20.70;76.60;;;;;;5073793;28;19921;-66
2023/08/12 12:33:48;;;;;;;;;;;20.70;76.70;;;;;;5074825;28;20014;-66
2023/08/12 12:36:13;;;;;;;;;;;20.70;76.70;;;;;;5073379;28;19928;-65
2023/08/12 12:38:39;;;;;;;;;;;20.70;76.90;;;;;;5073456;28;19924;-65
2023/08/12 12:41:04;;;;;;;;;;;20.70;76.90;;;;;;5073401;28;19928;-65
2023/08/12 12:43:30;;;;;;;;;;;20.70;77.00;;;;;;5074604;28;19920;-65
2023/08/12 12:45:55;;;;;;;;;;;20.70;77.10;;;;;;5074577;28;19920;-65
2023/08/12 12:48:21;;;;;;;;;;;20.80;77.20;;;;;;5073226;28;19920;-66
2023/08/12 12:50:46;;;;;;;;;;;20.70;77.20;;;;;;5073470;28;20003;-65
2023/08/12 12:53:12;;;;;;;;;;;20.70;77.10;;;;;;5073456;28;19936;-65
2023/08/12 12:55:37;;;;;;;;;;;20.70;77.10;;;;;;5074452;28;20264;-65
2023/08/12 12:58:03;;;;;;;;;;;20.70;77.10;;;;;;5073140;28;19927;-65
2023/08/12 13:00:28;;;;;;;;;;;20.70;77.10;;;;;;5072870;28;19971;-65
2023/08/12 13:02:54;;;;;;;;;;;20.70;77.20;;;;;;5072876;28;20388;-65
2023/08/12 13:05:19;;;;;;;;;;;20.80;77.20;;;;;;5074153;28;19920;-69
2023/08/12 13:07:45;;;;;;;;;;;20.70;77.20;;;;;;5073108;28;20447;-65
2023/08/12 13:10:11;;;;;;;;;;;20.70;77.10;;;;;;5074005;28;19978;-65
2023/08/12 13:12:36;;;;;;;;;;;20.70;77.20;;;;;;5072730;28;19993;-65
2023/08/12 13:15:02;;;;;;;;;;;20.80;77.20;;;;;;5072698;28;19962;-65
2023/08/12 13:17:28;;;;;;;;;;;20.70;77.10;;;;;;5072576;28;19921;-65
2023/08/12 13:19:53;;;;;;;;;;;20.70;77.20;;;;;;5073829;28;19921;-65
2023/08/12 13:22:19;;;;;;;;;;;20.70;77.30;;;;;;5072487;28;20273;-69
2023/08/12 13:24:44;;;;;;;;;;;20.70;77.10;;;;;;5071468;28;20395;-64
2023/08/12 13:27:10;;;;;;;;;;;20.70;77.20;;;;;;5072600;28;20007;-65
2023/08/12 13:29:35;;;;;;;;;;;20.70;77.30;;;;;;5072355;28;20299;-65
2023/08/12 13:32:01;;;;;;;;;;;20.70;77.30;;;;;;5072537;28;19927;-65
2023/08/12 13:34:26;;;;;;;;;;;20.70;77.20;;;;;;5072616;28;19942;-70
2023/08/12 13:36:52;;;;;;;;;;;20.80;77.30;;;;;;5072280;28;19920;-65
2023/08/12 13:39:17;;;;;;;;;;;20.70;77.20;;;;;;5072216;28;19927;-65
2023/08/12 13:41:43;;;;;;;;;;;20.80;77.20;;;;;;5073346;28;20003;-65
2023/08/12 13:44:09;;;;;;;;;;;20.70;77.20;;;;;;5072416;28;20185;-65
2023/08/12 13:46:34;;;;;;;;;;;20.80;77.40;;;;;;5073520;28;20338;-65
2023/08/12 13:48:59;;;;;;;;;;;20.70;77.20;;;;;;5072290;28;19920;-65
2023/08/12 13:51:25;;;;;;;;;;;20.70;77.10;;;;;;5072320;28;19966;-65
2023/08/12 13:53:50;;;;;;;;;;;20.70;77.10;;;;;;5071939;28;20204;-65
2023/08/12 13:56:17;;;;;;;;;;;20.80;77.20;;;;;;5071852;28;19920;-65
2023/08/12 13:58:42;;;;;;;;;;;20.80;77.10;;;;;;5072454;28;20346;-65
2023/08/12 14:01:08;;;;;;;;;;;20.70;77.00;;;;;;5072793;28;19925;-65
2023/08/12 14:03:34;;;;;;;;;;;20.80;77.10;;;;;;5072995;28;19920;-65
2023/08/12 14:05:59;;;;;;;;;;;20.80;77.00;;;;;;5071946;28;19925;-65
2023/08/12 14:08:25;;;;;;;;;;;20.70;76.90;;;;;;5072931;28;20406;-65
2023/08/12 14:10:50;;;;;;;;;;;20.80;77.00;;;;;;5071881;28;19920;-65
2023/08/12 14:13:16;;;;;;;;;;;20.80;77.00;;;;;;5071879;28;20363;-65
2023/08/12 14:15:41;;;;;;;;;;;20.80;77.00;;;;;;5073052;28;19920;-65
2023/08/12 14:18:08;;;;;;;;;;;20.80;76.80;;;;;;5054895;28;20387;-65